sensor_id;sensor_type;location;lat;lon;timestamp;P1;durP1;ratioP1;P2;durP2;ratioP2
11767;SDS011;5941;57.652;12.514;2023-07-31T00:00:39;825.37;;;777.90;;
11767;SDS011;5941;57.652;12.514;2023-07-31T00:03:05;834.40;;;785.53;;
11767;SDS011;5941;57.652;12.514;2023-07-31T00:05:31;859.00;;;807.13;;
11767;SDS011;5941;57.652;12.514;2023-07-31T00:07:57;876.90;;;822.90;;
11767;SDS011;5941;57.652;12.514;2023-07-31T00:10:23;854.47;;;802.97;;
11767;SDS011;5941;57.652;12.514;2023-07-31T00:12:49;868.37;;;814.87;;
11767;SDS011;5941;57.652;12.514;2023-07-31T00:15:15;894.47;;;837.60;;
11767;SDS011;5941;57.652;12.514;2023-07-31T00:17:41;895.93;;;839.67;;
11767;SDS011;5941;57.652;12.514;2023-07-31T00:20:07;887.60;;;833.20;;
11767;SDS011;5941;57.652;12.514;2023-07-31T00:22:33;858.47;;;807.03;;
11767;SDS011;5941;57.652;12.514;2023-07-31T00:25:01;845.70;;;795.73;;
11767;SDS011;5941;57.652;12.514;2023-07-31T00:27:27;867.83;;;815.10;;
11767;SDS011;5941;57.652;12.514;2023-07-31T00:29:53;876.80;;;822.63;;
11767;SDS011;5941;57.652;12.514;2023-07-31T00:32:19;893.27;;;837.63;;
11767;SDS011;5941;57.652;12.514;2023-07-31T00:34:45;898.90;;;843.13;;
11767;SDS011;5941;57.652;12.514;2023-07-31T00:37:11;872.00;;;819.80;;
11767;SDS011;5941;57.652;12.514;2023-07-31T00:39:37;888.67;;;832.73;;
11767;SDS011;5941;57.652;12.514;2023-07-31T00:42:03;880.03;;;825.73;;
11767;SDS011;5941;57.652;12.514;2023-07-31T00:44:29;940.20;;;877.97;;
11767;SDS011;5941;57.652;12.514;2023-07-31T00:46:55;949.50;;;884.60;;
11767;SDS011;5941;57.652;12.514;2023-07-31T00:49:23;943.20;;;879.67;;
11767;SDS011;5941;57.652;12.514;2023-07-31T00:51:49;926.10;;;866.50;;
11767;SDS011;5941;57.652;12.514;2023-07-31T00:54:15;953.50;;;889.53;;
11767;SDS011;5941;57.652;12.514;2023-07-31T00:56:41;958.97;;;893.60;;
11767;SDS011;5941;57.652;12.514;2023-07-31T00:59:08;897.53;;;840.20;;
11767;SDS011;5941;57.652;12.514;2023-07-31T01:01:34;960.13;;;894.53;;
11767;SDS011;5941;57.652;12.514;2023-07-31T01:04:00;965.73;;;899.00;;
11767;SDS011;5941;57.652;12.514;2023-07-31T01:09:40;901.00;;;842.27;;
11767;SDS011;5941;57.652;12.514;2023-07-31T01:12:07;917.90;;;858.27;;
11767;SDS011;5941;57.652;12.514;2023-07-31T01:14:34;898.17;;;840.77;;
11767;SDS011;5941;57.652;12.514;2023-07-31T01:17:00;902.23;;;844.67;;
11767;SDS011;5941;57.652;12.514;2023-07-31T01:19:26;933.03;;;872.37;;
11767;SDS011;5941;57.652;12.514;2023-07-31T01:21:57;966.83;;;901.60;;
11767;SDS011;5941;57.652;12.514;2023-07-31T01:26:57;950.03;;;886.23;;
11767;SDS011;5941;57.652;12.514;2023-07-31T01:29:38;975.37;;;908.30;;
11767;SDS011;5941;57.652;12.514;2023-07-31T01:32:06;953.40;;;888.37;;
11767;SDS011;5941;57.652;12.514;2023-07-31T01:34:33;982.23;;;913.97;;
11767;SDS011;5941;57.652;12.514;2023-07-31T01:37:00;984.90;;;916.77;;
11767;SDS011;5941;57.652;12.514;2023-07-31T01:39:26;965.47;;;899.03;;
11767;SDS011;5941;57.652;12.514;2023-07-31T01:41:52;951.60;;;887.37;;
11767;SDS011;5941;57.652;12.514;2023-07-31T01:44:18;957.63;;;892.70;;
11767;SDS011;5941;57.652;12.514;2023-07-31T01:46:44;996.60;;;925.03;;
11767;SDS011;5941;57.652;12.514;2023-07-31T01:49:10;983.20;;;914.57;;
11767;SDS011;5941;57.652;12.514;2023-07-31T01:51:36;986.13;;;916.10;;
11767;SDS011;5941;57.652;12.514;2023-07-31T01:54:02;981.60;;;911.27;;
11767;SDS011;5941;57.652;12.514;2023-07-31T01:56:28;958.27;;;893.43;;
11767;SDS011;5941;57.652;12.514;2023-07-31T01:58:54;998.23;;;926.50;;
11767;SDS011;5941;57.652;12.514;2023-07-31T02:01:20;988.23;;;918.10;;
11767;SDS011;5941;57.652;12.514;2023-07-31T02:03:46;1008.13;;;936.37;;
11767;SDS011;5941;57.652;12.514;2023-07-31T02:06:12;956.03;;;892.47;;
11767;SDS011;5941;57.652;12.514;2023-07-31T02:08:38;928.97;;;868.03;;
11767;SDS011;5941;57.652;12.514;2023-07-31T02:11:04;928.83;;;867.67;;
11767;SDS011;5941;57.652;12.514;2023-07-31T02:13:30;956.33;;;891.63;;
11767;SDS011;5941;57.652;12.514;2023-07-31T02:15:56;944.67;;;881.03;;
11767;SDS011;5941;57.652;12.514;2023-07-31T02:18:22;948.97;;;883.77;;
11767;SDS011;5941;57.652;12.514;2023-07-31T02:20:49;1001.40;;;929.73;;
11767;SDS011;5941;57.652;12.514;2023-07-31T02:23:16;982.40;;;913.37;;
11767;SDS011;5941;57.652;12.514;2023-07-31T02:25:42;954.77;;;890.87;;
11767;SDS011;5941;57.652;12.514;2023-07-31T02:28:08;968.00;;;902.50;;
11767;SDS011;5941;57.652;12.514;2023-07-31T02:30:34;962.07;;;897.00;;
11767;SDS011;5941;57.652;12.514;2023-07-31T02:33:00;950.87;;;887.30;;
11767;SDS011;5941;57.652;12.514;2023-07-31T02:35:26;961.07;;;896.00;;
11767;SDS011;5941;57.652;12.514;2023-07-31T02:37:52;957.37;;;891.57;;
11767;SDS011;5941;57.652;12.514;2023-07-31T02:40:18;948.67;;;885.30;;
11767;SDS011;5941;57.652;12.514;2023-07-31T02:42:44;942.87;;;879.77;;
11767;SDS011;5941;57.652;12.514;2023-07-31T02:45:10;926.27;;;865.07;;
11767;SDS011;5941;57.652;12.514;2023-07-31T02:47:36;938.57;;;876.80;;
11767;SDS011;5941;57.652;12.514;2023-07-31T02:50:02;951.10;;;888.13;;
11767;SDS011;5941;57.652;12.514;2023-07-31T02:52:29;969.13;;;901.43;;
11767;SDS011;5941;57.652;12.514;2023-07-31T02:54:55;954.87;;;889.90;;
11767;SDS011;5941;57.652;12.514;2023-07-31T02:57:21;945.37;;;882.27;;
11767;SDS011;5941;57.652;12.514;2023-07-31T02:59:47;932.20;;;870.30;;
11767;SDS011;5941;57.652;12.514;2023-07-31T03:02:13;950.93;;;887.10;;
11767;SDS011;5941;57.652;12.514;2023-07-31T03:04:39;930.23;;;868.37;;
11767;SDS011;5941;57.652;12.514;2023-07-31T03:07:05;963.37;;;896.47;;
11767;SDS011;5941;57.652;12.514;2023-07-31T03:09:31;917.73;;;856.27;;
11767;SDS011;5941;57.652;12.514;2023-07-31T03:11:57;877.03;;;821.83;;
11767;SDS011;5941;57.652;12.514;2023-07-31T03:14:23;881.80;;;826.90;;
11767;SDS011;5941;57.652;12.514;2023-07-31T03:16:51;911.10;;;852.77;;
11767;SDS011;5941;57.652;12.514;2023-07-31T03:19:17;947.53;;;883.73;;
11767;SDS011;5941;57.652;12.514;2023-07-31T03:21:43;964.60;;;897.63;;
11767;SDS011;5941;57.652;12.514;2023-07-31T03:24:09;977.10;;;908.33;;
11767;SDS011;5941;57.652;12.514;2023-07-31T03:26:37;957.37;;;890.50;;
11767;SDS011;5941;57.652;12.514;2023-07-31T03:29:03;922.80;;;861.00;;
11767;SDS011;5941;57.652;12.514;2023-07-31T03:31:29;966.73;;;899.27;;
11767;SDS011;5941;57.652;12.514;2023-07-31T03:33:55;988.07;;;917.33;;
11767;SDS011;5941;57.652;12.514;2023-07-31T03:36:21;970.33;;;903.77;;
11767;SDS011;5941;57.652;12.514;2023-07-31T03:38:47;960.50;;;893.23;;
11767;SDS011;5941;57.652;12.514;2023-07-31T03:41:13;987.10;;;917.30;;
11767;SDS011;5941;57.652;12.514;2023-07-31T03:43:39;983.90;;;914.70;;
11767;SDS011;5941;57.652;12.514;2023-07-31T03:46:05;996.27;;;923.33;;
11767;SDS011;5941;57.652;12.514;2023-07-31T03:48:31;999.33;;;927.23;;
11767;SDS011;5941;57.652;12.514;2023-07-31T03:50:57;1329.73;;;947.83;;
11767;SDS011;5941;57.652;12.514;2023-07-31T03:53:23;1999.90;;;999.90;;
11767;SDS011;5941;57.652;12.514;2023-07-31T03:55:49;1999.90;;;999.90;;
11767;SDS011;5941;57.652;12.514;2023-07-31T03:58:15;1999.90;;;999.90;;
11767;SDS011;5941;57.652;12.514;2023-07-31T04:00:41;1999.90;;;999.90;;
11767;SDS011;5941;57.652;12.514;2023-07-31T04:03:07;1999.90;;;999.90;;
11767;SDS011;5941;57.652;12.514;2023-07-31T04:05:37;1999.90;;;999.90;;
11767;SDS011;5941;57.652;12.514;2023-07-31T04:08:03;1309.70;;;930.30;;
11767;SDS011;5941;57.652;12.514;2023-07-31T04:10:30;1999.90;;;999.90;;
11767;SDS011;5941;57.652;12.514;2023-07-31T04:12:58;1999.90;;;999.90;;
11767;SDS011;5941;57.652;12.514;2023-07-31T04:15:24;1999.90;;;999.90;;
11767;SDS011;5941;57.652;12.514;2023-07-31T04:17:50;1999.90;;;999.90;;
11767;SDS011;5941;57.652;12.514;2023-07-31T04:20:16;1999.90;;;999.90;;
11767;SDS011;5941;57.652;12.514;2023-07-31T04:22:42;1999.90;;;999.90;;
11767;SDS011;5941;57.652;12.514;2023-07-31T04:25:08;1999.90;;;999.90;;
11767;SDS011;5941;57.652;12.514;2023-07-31T04:27:34;1999.90;;;999.90;;
11767;SDS011;5941;57.652;12.514;2023-07-31T04:30:00;1999.90;;;999.90;;
11767;SDS011;5941;57.652;12.514;2023-07-31T04:32:26;1999.90;;;999.90;;
11767;SDS011;5941;57.652;12.514;2023-07-31T04:34:53;1999.90;;;999.90;;
11767;SDS011;5941;57.652;12.514;2023-07-31T04:37:19;1999.90;;;999.90;;
11767;SDS011;5941;57.652;12.514;2023-07-31T04:39:45;1999.90;;;999.90;;
11767;SDS011;5941;57.652;12.514;2023-07-31T04:42:11;1999.90;;;999.90;;
11767;SDS011;5941;57.652;12.514;2023-07-31T04:44:38;1999.90;;;999.90;;
11767;SDS011;5941;57.652;12.514;2023-07-31T04:47:04;1999.90;;;999.90;;
11767;SDS011;5941;57.652;12.514;2023-07-31T04:49:30;1999.90;;;999.90;;
11767;SDS011;5941;57.652;12.514;2023-07-31T04:51:56;1999.90;;;999.90;;
11767;SDS011;5941;57.652;12.514;2023-07-31T04:54:22;1999.90;;;999.90;;
11767;SDS011;5941;57.652;12.514;2023-07-31T04:56:48;1999.90;;;999.90;;
11767;SDS011;5941;57.652;12.514;2023-07-31T04:59:14;1999.90;;;999.90;;
11767;SDS011;5941;57.652;12.514;2023-07-31T05:01:40;1999.90;;;999.90;;
11767;SDS011;5941;57.652;12.514;2023-07-31T05:04:05;1999.90;;;999.90;;
11767;SDS011;5941;57.652;12.514;2023-07-31T05:06:32;1999.90;;;999.90;;
11767;SDS011;5941;57.652;12.514;2023-07-31T05:08:58;1999.90;;;999.90;;
11767;SDS011;5941;57.652;12.514;2023-07-31T05:11:24;1999.90;;;999.90;;
11767;SDS011;5941;57.652;12.514;2023-07-31T05:13:50;1999.90;;;999.90;;
11767;SDS011;5941;57.652;12.514;2023-07-31T05:16:16;1999.90;;;999.90;;
11767;SDS011;5941;57.652;12.514;2023-07-31T05:18:42;1999.90;;;999.90;;
11767;SDS011;5941;57.652;12.514;2023-07-31T05:21:08;1999.90;;;999.90;;
11767;SDS011;5941;57.652;12.514;2023-07-31T05:23:34;1999.90;;;999.90;;
11767;SDS011;5941;57.652;12.514;2023-07-31T05:26:04;1999.90;;;999.90;;
11767;SDS011;5941;57.652;12.514;2023-07-31T05:28:30;1999.90;;;999.90;;
11767;SDS011;5941;57.652;12.514;2023-07-31T05:30:59;1999.90;;;999.90;;
11767;SDS011;5941;57.652;12.514;2023-07-31T05:33:25;1999.90;;;999.90;;
11767;SDS011;5941;57.652;12.514;2023-07-31T05:35:51;1999.90;;;999.90;;
11767;SDS011;5941;57.652;12.514;2023-07-31T05:38:17;1999.90;;;999.90;;
11767;SDS011;5941;57.652;12.514;2023-07-31T05:40:43;1999.90;;;999.90;;
11767;SDS011;5941;57.652;12.514;2023-07-31T05:43:09;1999.90;;;999.90;;
11767;SDS011;5941;57.652;12.514;2023-07-31T05:45:36;1999.90;;;999.90;;
11767;SDS011;5941;57.652;12.514;2023-07-31T05:48:02;1999.90;;;999.90;;
11767;SDS011;5941;57.652;12.514;2023-07-31T05:50:28;1999.90;;;999.90;;
11767;SDS011;5941;57.652;12.514;2023-07-31T05:52:54;1999.90;;;999.90;;
11767;SDS011;5941;57.652;12.514;2023-07-31T05:55:20;1999.90;;;999.90;;
11767;SDS011;5941;57.652;12.514;2023-07-31T05:57:46;1999.90;;;999.90;;
11767;SDS011;5941;57.652;12.514;2023-07-31T06:00:12;1999.90;;;999.90;;
11767;SDS011;5941;57.652;12.514;2023-07-31T06:02:38;1999.90;;;999.90;;
11767;SDS011;5941;57.652;12.514;2023-07-31T06:05:04;1999.90;;;999.90;;
11767;SDS011;5941;57.652;12.514;2023-07-31T06:07:31;1999.90;;;999.90;;
11767;SDS011;5941;57.652;12.514;2023-07-31T06:09:57;1999.90;;;999.90;;
11767;SDS011;5941;57.652;12.514;2023-07-31T06:12:29;1999.90;;;999.90;;
11767;SDS011;5941;57.652;12.514;2023-07-31T06:14:56;1999.90;;;999.90;;
11767;SDS011;5941;57.652;12.514;2023-07-31T06:17:22;1999.90;;;999.90;;
11767;SDS011;5941;57.652;12.514;2023-07-31T06:19:48;1999.90;;;999.90;;
11767;SDS011;5941;57.652;12.514;2023-07-31T06:22:13;1999.90;;;999.90;;
11767;SDS011;5941;57.652;12.514;2023-07-31T06:24:39;1999.90;;;999.90;;
11767;SDS011;5941;57.652;12.514;2023-07-31T06:27:06;1300.27;;;919.60;;
11767;SDS011;5941;57.652;12.514;2023-07-31T06:29:32;977.97;;;907.60;;
11767;SDS011;5941;57.652;12.514;2023-07-31T06:31:58;1999.90;;;999.90;;
11767;SDS011;5941;57.652;12.514;2023-07-31T06:34:24;1999.90;;;999.90;;
11767;SDS011;5941;57.652;12.514;2023-07-31T06:36:50;1999.90;;;999.90;;
11767;SDS011;5941;57.652;12.514;2023-07-31T06:39:16;1999.90;;;999.90;;
11767;SDS011;5941;57.652;12.514;2023-07-31T06:41:43;1999.90;;;999.90;;
11767;SDS011;5941;57.652;12.514;2023-07-31T06:44:09;1301.60;;;920.53;;
11767;SDS011;5941;57.652;12.514;2023-07-31T06:46:35;1999.90;;;999.90;;
11767;SDS011;5941;57.652;12.514;2023-07-31T06:49:02;1999.90;;;999.90;;
11767;SDS011;5941;57.652;12.514;2023-07-31T06:51:28;1999.90;;;999.90;;
11767;SDS011;5941;57.652;12.514;2023-07-31T06:53:56;1999.90;;;999.90;;
11767;SDS011;5941;57.652;12.514;2023-07-31T06:56:22;1999.90;;;999.90;;
11767;SDS011;5941;57.652;12.514;2023-07-31T06:58:48;1999.90;;;999.90;;
11767;SDS011;5941;57.652;12.514;2023-07-31T07:01:14;1999.90;;;999.90;;
11767;SDS011;5941;57.652;12.514;2023-07-31T07:03:40;1999.90;;;999.90;;
11767;SDS011;5941;57.652;12.514;2023-07-31T07:06:06;1999.90;;;999.90;;
11767;SDS011;5941;57.652;12.514;2023-07-31T07:08:32;1999.90;;;999.90;;
11767;SDS011;5941;57.652;12.514;2023-07-31T07:10:58;1999.90;;;999.90;;
11767;SDS011;5941;57.652;12.514;2023-07-31T07:13:24;1999.90;;;999.90;;
11767;SDS011;5941;57.652;12.514;2023-07-31T07:15:50;1999.90;;;999.90;;
11767;SDS011;5941;57.652;12.514;2023-07-31T07:18:16;989.30;;;918.03;;
11767;SDS011;5941;57.652;12.514;2023-07-31T07:20:47;967.40;;;899.17;;
11767;SDS011;5941;57.652;12.514;2023-07-31T07:23:13;985.20;;;915.80;;
11767;SDS011;5941;57.652;12.514;2023-07-31T07:25:39;1999.90;;;999.90;;
11767;SDS011;5941;57.652;12.514;2023-07-31T07:28:04;887.07;;;820.40;;
11767;SDS011;5941;57.652;12.514;2023-07-31T07:30:31;1999.90;;;999.90;;
11767;SDS011;5941;57.652;12.514;2023-07-31T07:32:57;1999.90;;;999.90;;
11767;SDS011;5941;57.652;12.514;2023-07-31T07:35:22;1999.90;;;999.90;;
11767;SDS011;5941;57.652;12.514;2023-07-31T07:37:49;1999.90;;;999.90;;
11767;SDS011;5941;57.652;12.514;2023-07-31T07:40:15;1999.90;;;999.90;;
11767;SDS011;5941;57.652;12.514;2023-07-31T07:42:41;1999.90;;;999.90;;
11767;SDS011;5941;57.652;12.514;2023-07-31T07:45:07;1999.90;;;999.90;;
11767;SDS011;5941;57.652;12.514;2023-07-31T07:47:33;1999.90;;;999.90;;
11767;SDS011;5941;57.652;12.514;2023-07-31T07:49:59;1999.90;;;999.90;;
11767;SDS011;5941;57.652;12.514;2023-07-31T07:52:25;1999.90;;;999.90;;
11767;SDS011;5941;57.652;12.514;2023-07-31T07:54:51;1999.90;;;999.90;;
11767;SDS011;5941;57.652;12.514;2023-07-31T07:57:17;1999.90;;;999.90;;
11767;SDS011;5941;57.652;12.514;2023-07-31T07:59:43;1999.90;;;999.90;;
11767;SDS011;5941;57.652;12.514;2023-07-31T08:02:09;1999.90;;;999.90;;
11767;SDS011;5941;57.652;12.514;2023-07-31T08:04:35;887.80;;;820.73;;
11767;SDS011;5941;57.652;12.514;2023-07-31T08:07:01;988.97;;;918.90;;
11767;SDS011;5941;57.652;12.514;2023-07-31T08:09:27;948.50;;;885.10;;
11767;SDS011;5941;57.652;12.514;2023-07-31T08:11:53;972.15;;;903.55;;
11767;SDS011;5941;57.652;12.514;2023-07-31T08:14:22;1999.90;;;999.90;;
11767;SDS011;5941;57.652;12.514;2023-07-31T08:16:48;927.23;;;866.60;;
11767;SDS011;5941;57.652;12.514;2023-07-31T08:19:14;923.80;;;863.57;;
11767;SDS011;5941;57.652;12.514;2023-07-31T08:21:40;898.13;;;840.57;;
11767;SDS011;5941;57.652;12.514;2023-07-31T08:24:06;897.27;;;839.83;;
11767;SDS011;5941;57.652;12.514;2023-07-31T08:26:33;909.97;;;850.77;;
11767;SDS011;5941;57.652;12.514;2023-07-31T08:28:59;898.77;;;841.57;;
11767;SDS011;5941;57.652;12.514;2023-07-31T08:31:25;834.70;;;785.23;;
11767;SDS011;5941;57.652;12.514;2023-07-31T08:33:51;914.07;;;855.30;;
11767;SDS011;5941;57.652;12.514;2023-07-31T08:36:18;919.97;;;859.33;;
11767;SDS011;5941;57.652;12.514;2023-07-31T08:38:45;946.37;;;881.47;;
11767;SDS011;5941;57.652;12.514;2023-07-31T08:41:11;889.57;;;833.83;;
11767;SDS011;5941;57.652;12.514;2023-07-31T08:43:38;885.23;;;829.73;;
11767;SDS011;5941;57.652;12.514;2023-07-31T08:46:04;898.60;;;841.87;;
11767;SDS011;5941;57.652;12.514;2023-07-31T08:48:30;881.73;;;827.13;;
11767;SDS011;5941;57.652;12.514;2023-07-31T08:50:56;939.67;;;875.03;;
11767;SDS011;5941;57.652;12.514;2023-07-31T08:53:23;962.13;;;894.87;;
11767;SDS011;5941;57.652;12.514;2023-07-31T08:55:49;1664.10;;;973.37;;
11767;SDS011;5941;57.652;12.514;2023-07-31T08:58:15;1999.90;;;999.90;;
11767;SDS011;5941;57.652;12.514;2023-07-31T09:00:41;1999.90;;;999.90;;
11767;SDS011;5941;57.652;12.514;2023-07-31T09:03:09;1999.90;;;999.90;;
11767;SDS011;5941;57.652;12.514;2023-07-31T09:05:38;1999.90;;;999.90;;
11767;SDS011;5941;57.652;12.514;2023-07-31T09:08:07;1999.90;;;999.90;;
11767;SDS011;5941;57.652;12.514;2023-07-31T09:10:33;1999.90;;;999.90;;
11767;SDS011;5941;57.652;12.514;2023-07-31T09:12:59;1999.90;;;999.90;;
11767;SDS011;5941;57.652;12.514;2023-07-31T09:15:25;1999.90;;;999.90;;
11767;SDS011;5941;57.652;12.514;2023-07-31T09:17:58;1999.90;;;999.90;;
11767;SDS011;5941;57.652;12.514;2023-07-31T09:20:26;1999.90;;;999.90;;
11767;SDS011;5941;57.652;12.514;2023-07-31T09:22:52;1999.90;;;999.90;;
11767;SDS011;5941;57.652;12.514;2023-07-31T09:25:19;977.23;;;908.43;;
11767;SDS011;5941;57.652;12.514;2023-07-31T09:27:58;1999.90;;;999.90;;
11767;SDS011;5941;57.652;12.514;2023-07-31T09:30:24;1999.90;;;999.90;;
11767;SDS011;5941;57.652;12.514;2023-07-31T09:32:51;1999.90;;;999.90;;
11767;SDS011;5941;57.652;12.514;2023-07-31T09:35:21;963.53;;;897.20;;
11767;SDS011;5941;57.652;12.514;2023-07-31T09:37:48;1999.90;;;999.90;;
11767;SDS011;5941;57.652;12.514;2023-07-31T09:40:24;987.33;;;918.20;;
11767;SDS011;5941;57.652;12.514;2023-07-31T09:42:51;1999.90;;;999.90;;
11767;SDS011;5941;57.652;12.514;2023-07-31T09:45:17;1999.90;;;999.90;;
11767;SDS011;5941;57.652;12.514;2023-07-31T09:47:47;1999.90;;;999.90;;
11767;SDS011;5941;57.652;12.514;2023-07-31T09:50:13;1653.13;;;963.67;;
11767;SDS011;5941;57.652;12.514;2023-07-31T09:52:41;1999.90;;;999.90;;
11767;SDS011;5941;57.652;12.514;2023-07-31T09:55:07;1311.70;;;932.13;;
11767;SDS011;5941;57.652;12.514;2023-07-31T09:57:33;1999.90;;;999.90;;
11767;SDS011;5941;57.652;12.514;2023-07-31T09:59:59;1999.90;;;999.90;;
11767;SDS011;5941;57.652;12.514;2023-07-31T10:02:25;1999.90;;;999.90;;
11767;SDS011;5941;57.652;12.514;2023-07-31T10:04:53;1999.90;;;999.90;;
11767;SDS011;5941;57.652;12.514;2023-07-31T10:07:23;1999.90;;;999.90;;
11767;SDS011;5941;57.652;12.514;2023-07-31T10:09:51;1999.90;;;999.90;;
11767;SDS011;5941;57.652;12.514;2023-07-31T10:12:18;1999.90;;;999.90;;
11767;SDS011;5941;57.652;12.514;2023-07-31T10:14:45;1999.90;;;999.90;;
11767;SDS011;5941;57.652;12.514;2023-07-31T10:17:11;1999.90;;;999.90;;
11767;SDS011;5941;57.652;12.514;2023-07-31T10:19:37;1999.90;;;999.90;;
11767;SDS011;5941;57.652;12.514;2023-07-31T10:22:03;964.58;;;897.03;;
11767;SDS011;5941;57.652;12.514;2023-07-31T10:24:30;918.33;;;850.13;;
11767;SDS011;5941;57.652;12.514;2023-07-31T10:26:57;1999.90;;;999.90;;
11767;SDS011;5941;57.652;12.514;2023-07-31T10:29:23;997.90;;;925.90;;
11767;SDS011;5941;57.652;12.514;2023-07-31T10:31:50;1999.90;;;999.90;;
11767;SDS011;5941;57.652;12.514;2023-07-31T10:34:16;1999.90;;;999.90;;
11767;SDS011;5941;57.652;12.514;2023-07-31T10:36:42;1999.90;;;999.90;;
11767;SDS011;5941;57.652;12.514;2023-07-31T10:41:53;1999.90;;;999.90;;
11767;SDS011;5941;57.652;12.514;2023-07-31T10:44:19;1999.90;;;999.90;;
11767;SDS011;5941;57.652;12.514;2023-07-31T10:46:45;1999.90;;;999.90;;
11767;SDS011;5941;57.652;12.514;2023-07-31T10:49:12;1999.90;;;999.90;;
11767;SDS011;5941;57.652;12.514;2023-07-31T10:51:46;1999.90;;;999.90;;
11767;SDS011;5941;57.652;12.514;2023-07-31T10:54:13;1999.90;;;999.90;;
11767;SDS011;5941;57.652;12.514;2023-07-31T10:56:40;1207.53;;;833.77;;
11767;SDS011;5941;57.652;12.514;2023-07-31T10:59:10;837.15;;;787.90;;
11767;SDS011;5941;57.652;12.514;2023-07-31T11:01:50;905.90;;;847.07;;
11767;SDS011;5941;57.652;12.514;2023-07-31T11:04:21;1999.90;;;999.90;;
11767;SDS011;5941;57.652;12.514;2023-07-31T11:06:58;1999.90;;;999.90;;
11767;SDS011;5941;57.652;12.514;2023-07-31T11:09:27;1999.90;;;999.90;;
11767;SDS011;5941;57.652;12.514;2023-07-31T11:11:53;1632.37;;;943.17;;
11767;SDS011;5941;57.652;12.514;2023-07-31T11:14:20;971.07;;;903.10;;
11767;SDS011;5941;57.652;12.514;2023-07-31T11:16:46;984.93;;;914.83;;
11767;SDS011;5941;57.652;12.514;2023-07-31T11:19:18;1336.07;;;953.87;;
11767;SDS011;5941;57.652;12.514;2023-07-31T11:21:46;956.80;;;891.77;;
11767;SDS011;5941;57.652;12.514;2023-07-31T11:24:13;881.97;;;827.03;;
11767;SDS011;5941;57.652;12.514;2023-07-31T11:26:47;1999.90;;;999.90;;
11767;SDS011;5941;57.652;12.514;2023-07-31T11:29:13;1999.90;;;999.90;;
11767;SDS011;5941;57.652;12.514;2023-07-31T11:31:42;897.13;;;832.97;;
11767;SDS011;5941;57.652;12.514;2023-07-31T11:34:08;1999.90;;;999.90;;
11767;SDS011;5941;57.652;12.514;2023-07-31T11:36:34;966.40;;;897.93;;
11767;SDS011;5941;57.652;12.514;2023-07-31T11:39:10;993.97;;;922.37;;
11767;SDS011;5941;57.652;12.514;2023-07-31T11:41:36;1999.90;;;999.90;;
11767;SDS011;5941;57.652;12.514;2023-07-31T11:44:06;1999.90;;;999.90;;
11767;SDS011;5941;57.652;12.514;2023-07-31T11:46:31;911.93;;;853.90;;
11767;SDS011;5941;57.652;12.514;2023-07-31T11:48:59;967.40;;;899.07;;
11767;SDS011;5941;57.652;12.514;2023-07-31T11:51:25;970.73;;;902.27;;
11767;SDS011;5941;57.652;12.514;2023-07-31T11:53:52;871.50;;;818.13;;
11767;SDS011;5941;57.652;12.514;2023-07-31T11:56:19;1315.07;;;935.83;;
11767;SDS011;5941;57.652;12.514;2023-07-31T11:58:49;1320.27;;;939.60;;
11767;SDS011;5941;57.652;12.514;2023-07-31T12:01:16;1327.30;;;946.20;;
11767;SDS011;5941;57.652;12.514;2023-07-31T12:03:44;907.17;;;847.10;;
11767;SDS011;5941;57.652;12.514;2023-07-31T12:06:11;846.43;;;796.70;;
11767;SDS011;5941;57.652;12.514;2023-07-31T12:08:37;942.83;;;879.07;;
11767;SDS011;5941;57.652;12.514;2023-07-31T12:11:04;917.00;;;857.20;;
11767;SDS011;5941;57.652;12.514;2023-07-31T12:13:30;866.47;;;813.63;;
11767;SDS011;5941;57.652;12.514;2023-07-31T12:15:57;939.37;;;874.03;;
11767;SDS011;5941;57.652;12.514;2023-07-31T12:18:24;1289.23;;;913.87;;
11767;SDS011;5941;57.652;12.514;2023-07-31T12:20:57;946.33;;;881.90;;
11767;SDS011;5941;57.652;12.514;2023-07-31T12:23:27;876.63;;;822.27;;
11767;SDS011;5941;57.652;12.514;2023-07-31T12:28:44;825.80;;;777.10;;
11767;SDS011;5941;57.652;12.514;2023-07-31T12:31:11;885.23;;;829.23;;
11767;SDS011;5941;57.652;12.514;2023-07-31T12:33:38;960.47;;;891.75;;
11767;SDS011;5941;57.652;12.514;2023-07-31T12:36:07;834.80;;;785.47;;
11767;SDS011;5941;57.652;12.514;2023-07-31T12:38:33;1220.72;;;919.45;;
11767;SDS011;5941;57.652;12.514;2023-07-31T12:40:59;1999.90;;;999.90;;
11767;SDS011;5941;57.652;12.514;2023-07-31T12:43:25;1017.95;;;942.35;;
11767;SDS011;5941;57.652;12.514;2023-07-31T12:45:51;913.80;;;853.03;;
11767;SDS011;5941;57.652;12.514;2023-07-31T12:48:17;881.05;;;825.03;;
11767;SDS011;5941;57.652;12.514;2023-07-31T12:50:43;879.35;;;824.00;;
11767;SDS011;5941;57.652;12.514;2023-07-31T12:53:09;967.85;;;899.80;;
11767;SDS011;5941;57.652;12.514;2023-07-31T12:55:35;1687.90;;;922.75;;
11767;SDS011;5941;57.652;12.514;2023-07-31T12:58:01;1999.90;;;999.90;;
11767;SDS011;5941;57.652;12.514;2023-07-31T13:00:27;876.20;;;822.03;;
11767;SDS011;5941;57.652;12.514;2023-07-31T13:02:54;885.03;;;828.70;;
11767;SDS011;5941;57.652;12.514;2023-07-31T13:05:19;1223.82;;;922.83;;
11767;SDS011;5941;57.652;12.514;2023-07-31T13:07:46;1999.90;;;999.90;;
11767;SDS011;5941;57.652;12.514;2023-07-31T13:10:12;906.38;;;846.33;;
11767;SDS011;5941;57.652;12.514;2023-07-31T13:12:38;897.50;;;840.00;;
11767;SDS011;5941;57.652;12.514;2023-07-31T13:15:04;927.08;;;865.30;;
11767;SDS011;5941;57.652;12.514;2023-07-31T13:17:31;918.33;;;858.03;;
11767;SDS011;5941;57.652;12.514;2023-07-31T13:19:57;874.08;;;819.53;;
11767;SDS011;5941;57.652;12.514;2023-07-31T13:22:23;878.67;;;823.05;;
11767;SDS011;5941;57.652;12.514;2023-07-31T13:24:49;935.92;;;872.25;;
11767;SDS011;5941;57.652;12.514;2023-07-31T13:27:15;829.28;;;780.10;;
11767;SDS011;5941;57.652;12.514;2023-07-31T13:29:46;732.17;;;694.35;;
11767;SDS011;5941;57.652;12.514;2023-07-31T13:32:12;738.67;;;699.80;;
11767;SDS011;5941;57.652;12.514;2023-07-31T13:34:38;842.45;;;792.67;;
11767;SDS011;5941;57.652;12.514;2023-07-31T13:37:04;868.72;;;815.60;;
11767;SDS011;5941;57.652;12.514;2023-07-31T13:39:33;893.20;;;836.58;;
11767;SDS011;5941;57.652;12.514;2023-07-31T13:42:00;893.67;;;836.60;;
11767;SDS011;5941;57.652;12.514;2023-07-31T13:44:26;979.53;;;909.65;;
11767;SDS011;5941;57.652;12.514;2023-07-31T13:46:52;1999.90;;;999.90;;
11767;SDS011;5941;57.652;12.514;2023-07-31T13:49:18;1999.90;;;999.90;;
11767;SDS011;5941;57.652;12.514;2023-07-31T13:51:44;1999.90;;;999.90;;
11767;SDS011;5941;57.652;12.514;2023-07-31T13:54:11;1999.90;;;999.90;;
11767;SDS011;5941;57.652;12.514;2023-07-31T13:56:37;1999.90;;;999.90;;
11767;SDS011;5941;57.652;12.514;2023-07-31T13:59:03;1999.90;;;999.90;;